Time;durP1;ratioP1;P1;durP2;ratioP2;P2;SDS_P1;SDS_P2;PMS_P1;PMS_P2;Temp;Humidity;BMP_temperature;BMP_pressure;BME280_temperature;BME280_humidity;BME280_pressure;Samples;Min_cycle;Max_cycle;Signal;HPM_P1;HPM_P2
2022/04/22 00:01:58;;;;;;;;;;;8.50;75.10;;;;;;5034468;28;19940;-65
2022/04/22 00:04:31;;;;;;;;;;;8.50;74.70;;;;;;5032207;28;19929;-65
2022/04/22 00:06:58;;;;;;;;;;;8.50;75.20;;;;;;5033278;28;19933;-65
2022/04/22 00:09:25;;;;;;;;;;;8.50;75.00;;;;;;5037383;28;19925;-65
2022/04/22 00:11:52;;;;;;;;;;;8.50;75.20;;;;;;5037484;28;19940;-65
2022/04/22 00:14:20;;;;;;;;;;;8.50;74.20;;;;;;5035029;28;20039;-65
2022/04/22 00:16:47;;;;;;;;;;;8.50;74.60;;;;;;5035255;28;19929;-65
2022/04/22 00:19:14;;;;;;;;;;;8.50;74.70;;;;;;5031399;28;19935;-65
2022/04/22 00:21:42;;;;;;;;;;;8.50;75.00;;;;;;5034666;28;21307;-65
2022/04/22 00:24:09;;;;;;;;;;;8.50;74.80;;;;;;5043466;28;19929;-65
2022/04/22 00:26:35;;;;;;;;;;;8.50;74.90;;;;;;5031337;28;20799;-65
2022/04/22 00:29:02;;;;;;;;;;;8.50;75.50;;;;;;5037948;28;19933;-65
2022/04/22 00:31:29;;;;;;;;;;;8.60;75.60;;;;;;5032348;28;20006;-65
2022/04/22 00:33:56;;;;;;;;;;;8.60;75.30;;;;;;5030538;28;19928;-65
2022/04/22 00:36:23;;;;;;;;;;;8.50;76.00;;;;;;5030772;28;20264;-65
2022/04/22 00:38:50;;;;;;;;;;;8.60;76.00;;;;;;5007368;28;19940;-65
2022/04/22 00:41:18;;;;;;;;;;;8.50;76.00;;;;;;5035666;28;20634;-65
2022/04/22 00:43:46;;;;;;;;;;;8.50;76.20;;;;;;5037337;28;19936;-65
2022/04/22 00:46:13;;;;;;;;;;;8.50;76.70;;;;;;5033509;28;19935;-65
2022/04/22 00:48:40;;;;;;;;;;;8.50;77.00;;;;;;5030509;28;19936;-65
2022/04/22 00:51:08;;;;;;;;;;;8.40;76.20;;;;;;5033191;28;19929;-66
2022/04/22 00:53:36;;;;;;;;;;;8.40;76.30;;;;;;5030357;28;19929;-65
2022/04/22 00:56:04;;;;;;;;;;;8.40;76.70;;;;;;5031482;28;20293;-65
2022/04/22 00:58:31;;;;;;;;;;;8.40;76.60;;;;;;5027757;28;19933;-65
2022/04/22 01:00:58;;;;;;;;;;;8.40;76.20;;;;;;5028380;28;19932;-65
2022/04/22 01:03:26;;;;;;;;;;;8.30;76.70;;;;;;5029949;28;20444;-66
2022/04/22 01:11:36;;;;;;;;;;;8.30;77.40;;;;;;5031958;28;19939;-65
2022/04/22 01:14:06;;;;;;;;;;;8.30;77.00;;;;;;5020255;28;19982;-65
2022/04/22 01:16:33;;;;;;;;;;;8.30;76.80;;;;;;5032971;28;19936;-65
2022/04/22 01:19:00;;;;;;;;;;;8.30;77.20;;;;;;5036420;28;19936;-64
2022/04/22 01:21:27;;;;;;;;;;;8.30;76.80;;;;;;5049159;28;20654;-65
2022/04/22 01:23:54;;;;;;;;;;;8.30;76.80;;;;;;5045713;28;19928;-65
2022/04/22 01:26:21;;;;;;;;;;;8.30;76.80;;;;;;5036755;28;19999;-65
2022/04/22 01:28:50;;;;;;;;;;;8.30;76.60;;;;;;5036643;28;20449;-65
2022/04/22 01:31:17;;;;;;;;;;;8.30;77.30;;;;;;5037100;28;19932;-65
2022/04/22 01:33:44;;;;;;;;;;;8.20;76.90;;;;;;5038707;28;19929;-65
2022/04/22 01:36:11;;;;;;;;;;;8.20;77.40;;;;;;5039201;28;19933;-64
2022/04/22 01:38:38;;;;;;;;;;;8.30;77.40;;;;;;5034458;28;19928;-65
2022/04/22 01:41:05;;;;;;;;;;;8.30;77.20;;;;;;5027825;28;20303;-65
2022/04/22 01:43:34;;;;;;;;;;;8.20;77.40;;;;;;5034622;28;20010;-65
2022/04/22 01:46:01;;;;;;;;;;;8.20;77.40;;;;;;5031163;28;19929;-65
2022/04/22 01:48:30;;;;;;;;;;;8.30;77.40;;;;;;5029754;28;19925;-64
2022/04/22 01:50:58;;;;;;;;;;;8.30;77.70;;;;;;5031393;28;19964;-64
2022/04/22 01:53:25;;;;;;;;;;;8.30;77.60;;;;;;5034929;28;19956;-64
2022/04/22 01:55:52;;;;;;;;;;;8.30;77.40;;;;;;5037236;28;20035;-65
2022/04/22 01:58:19;;;;;;;;;;;8.30;77.60;;;;;;5047926;28;20347;-65
2022/04/22 02:00:46;;;;;;;;;;;8.30;78.20;;;;;;5033283;28;19939;-64
2022/04/22 02:03:13;;;;;;;;;;;8.30;78.00;;;;;;5035471;28;19929;-64
2022/04/22 02:05:40;;;;;;;;;;;8.20;77.60;;;;;;5033923;28;20418;-65
2022/04/22 02:08:08;;;;;;;;;;;8.30;78.90;;;;;;5039505;28;19940;-64
2022/04/22 02:10:35;;;;;;;;;;;8.20;77.90;;;;;;5020448;28;19936;-64
2022/04/22 02:13:02;;;;;;;;;;;8.30;78.60;;;;;;5035555;28;20027;-64
2022/04/22 02:15:29;;;;;;;;;;;8.30;78.00;;;;;;5039193;28;19936;-65
2022/04/22 02:17:57;;;;;;;;;;;8.30;77.90;;;;;;5048583;28;20015;-64
2022/04/22 02:20:24;;;;;;;;;;;8.40;77.50;;;;;;5036741;28;19932;-64
2022/04/22 02:22:50;;;;;;;;;;;8.30;77.20;;;;;;5032905;28;20384;-64
2022/04/22 02:25:17;;;;;;;;;;;8.30;77.50;;;;;;5034573;28;20019;-64
2022/04/22 02:30:30;;;;;;;;;;;8.30;78.80;;;;;;5037965;28;19933;-65
2022/04/22 02:32:58;;;;;;;;;;;8.40;78.40;;;;;;5033354;28;19939;-64
2022/04/22 02:35:25;;;;;;;;;;;8.30;78.40;;;;;;5033512;28;19933;-64
2022/04/22 02:37:54;;;;;;;;;;;8.40;78.00;;;;;;5034963;28;20359;-64
2022/04/22 02:45:52;;;;;;;;;;;8.50;78.10;;;;;;5036806;28;20019;-65
2022/04/22 02:48:20;;;;;;;;;;;8.40;78.60;;;;;;5030705;28;19938;-64
2022/04/22 02:50:47;;;;;;;;;;;8.50;78.80;;;;;;5033835;28;20032;-65
2022/04/22 02:53:14;;;;;;;;;;;8.50;78.60;;;;;;5030863;28;19929;-64
2022/04/22 02:55:47;;;;;;;;;;;8.50;78.10;;;;;;5034531;28;19960;-64
2022/04/22 02:58:14;;;;;;;;;;;8.40;77.90;;;;;;5029105;28;19952;-65
2022/04/22 03:00:41;;;;;;;;;;;8.50;78.20;;;;;;5032512;28;19967;-64
2022/04/22 03:03:08;;;;;;;;;;;8.40;78.20;;;;;;5035976;28;19937;-65
2022/04/22 03:05:35;;;;;;;;;;;8.40;78.40;;;;;;5028476;28;20099;-64
2022/04/22 03:08:02;;;;;;;;;;;8.40;78.10;;;;;;5034183;28;19925;-64
2022/04/22 03:10:32;;;;;;;;;;;8.40;78.70;;;;;;5035121;28;19936;-65
2022/04/22 03:12:59;;;;;;;;;;;8.40;79.20;;;;;;5046644;28;20442;-66
2022/04/22 03:15:27;;;;;;;;;;;8.50;79.20;;;;;;5033453;28;19929;-65
2022/04/22 03:17:54;;;;;;;;;;;8.50;79.20;;;;;;5032329;28;19929;-65
2022/04/22 03:20:21;;;;;;;;;;;8.40;79.10;;;;;;5031468;28;19928;-65
2022/04/22 03:22:48;;;;;;;;;;;8.40;79.60;;;;;;5030143;28;19933;-67
2022/04/22 03:25:17;;;;;;;;;;;8.40;80.10;;;;;;5031562;28;19936;-65
2022/04/22 03:27:44;;;;;;;;;;;8.40;80.60;;;;;;5034637;28;19933;-65
2022/04/22 03:30:11;;;;;;;;;;;8.40;81.40;;;;;;5033129;28;19940;-66
2022/04/22 03:32:38;;;;;;;;;;;8.30;81.00;;;;;;5030615;28;19929;-65
2022/04/22 03:35:06;;;;;;;;;;;8.30;81.20;;;;;;5044760;28;19928;-66
2022/04/22 03:37:32;;;;;;;;;;;8.30;81.10;;;;;;5030938;28;19933;-65
2022/04/22 03:40:00;;;;;;;;;;;8.20;80.40;;;;;;5029219;28;19969;-65
2022/04/22 03:42:28;;;;;;;;;;;8.20;80.80;;;;;;5037017;28;19929;-65
2022/04/22 03:44:56;;;;;;;;;;;8.20;80.90;;;;;;5029550;28;19929;-65
2022/04/22 03:47:23;;;;;;;;;;;8.20;81.00;;;;;;5039001;28;19929;-65
2022/04/22 03:49:50;;;;;;;;;;;8.10;81.20;;;;;;5046160;28;20043;-65
2022/04/22 03:52:17;;;;;;;;;;;8.20;81.70;;;;;;5029845;28;19928;-65
2022/04/22 03:54:44;;;;;;;;;;;8.10;81.60;;;;;;5032417;28;20380;-65
2022/04/22 03:59:57;;;;;;;;;;;8.20;80.40;;;;;;5027430;28;19965;-64
2022/04/22 04:02:24;;;;;;;;;;;8.20;80.30;;;;;;5034629;28;19925;-65
2022/04/22 04:04:51;;;;;;;;;;;8.20;80.20;;;;;;5029692;28;20410;-67
2022/04/22 04:07:18;;;;;;;;;;;8.20;80.50;;;;;;5028961;28;20484;-66
2022/04/22 04:18:02;;;;;;;;;;;8.20;79.60;;;;;;5030814;28;19932;-64
2022/04/22 04:23:14;;;;;;;;;;;8.30;80.30;;;;;;5032953;28;19933;-66
2022/04/22 04:25:43;;;;;;;;;;;8.30;80.30;;;;;;5031945;28;19940;-66
2022/04/22 04:28:10;;;;;;;;;;;8.30;80.00;;;;;;5036224;28;19948;-66
2022/04/22 04:30:38;;;;;;;;;;;8.30;80.30;;;;;;5027962;28;19959;-67
2022/04/22 04:33:05;;;;;;;;;;;8.30;79.80;;;;;;5028361;28;19929;-66
2022/04/22 04:35:34;;;;;;;;;;;8.30;80.20;;;;;;5032171;28;19932;-66
2022/04/22 04:38:01;;;;;;;;;;;8.30;80.30;;;;;;5030841;28;20918;-64
2022/04/22 04:40:28;;;;;;;;;;;8.30;80.10;;;;;;5026083;28;20043;-65
2022/04/22 04:42:55;;;;;;;;;;;8.30;80.40;;;;;;5027629;28;19929;-66
2022/04/22 04:45:22;;;;;;;;;;;8.40;80.10;;;;;;5032145;28;19940;-66
2022/04/22 04:47:49;;;;;;;;;;;8.30;79.90;;;;;;5032542;28;20502;-66
2022/04/22 04:50:16;;;;;;;;;;;8.40;80.10;;;;;;5029702;28;19925;-66
2022/04/22 04:52:43;;;;;;;;;;;8.40;79.60;;;;;;5030262;28;20339;-66
2022/04/22 04:55:11;;;;;;;;;;;8.40;79.40;;;;;;5033512;28;19936;-66
2022/04/22 04:57:38;;;;;;;;;;;8.40;79.80;;;;;;5032822;28;19925;-66
2022/04/22 05:00:06;;;;;;;;;;;8.40;79.50;;;;;;5030388;28;19936;-66
2022/04/22 05:02:33;;;;;;;;;;;8.40;79.60;;;;;;4987108;28;19940;-66
2022/04/22 05:05:00;;;;;;;;;;;8.40;79.60;;;;;;4988572;28;19933;-66
2022/04/22 05:07:27;;;;;;;;;;;8.40;79.60;;;;;;4983960;28;20399;-66
2022/04/22 05:09:54;;;;;;;;;;;8.40;79.80;;;;;;4978837;28;19933;-66
2022/04/22 05:12:21;;;;;;;;;;;8.40;79.90;;;;;;4975450;28;19933;-66
2022/04/22 05:14:48;;;;;;;;;;;8.40;79.90;;;;;;4984227;28;19939;-66
2022/04/22 05:17:15;;;;;;;;;;;8.40;80.00;;;;;;4987941;28;19933;-66
2022/04/22 05:19:42;;;;;;;;;;;8.40;80.00;;;;;;4987761;28;19937;-66
2022/04/22 05:22:09;;;;;;;;;;;8.40;80.20;;;;;;5004192;28;19940;-66
2022/04/22 05:24:37;;;;;;;;;;;8.40;80.00;;;;;;4985696;28;19933;-66
2022/04/22 05:27:04;;;;;;;;;;;8.40;80.30;;;;;;4982709;28;19932;-66
2022/04/22 05:35:04;;;;;;;;;;;8.50;80.10;;;;;;4984533;28;19955;-66
2022/04/22 05:37:46;;;;;;;;;;;8.50;80.60;;;;;;4992762;28;19933;-66
2022/04/22 05:40:16;;;;;;;;;;;8.50;80.10;;;;;;4986311;28;19933;-66
2022/04/22 05:42:48;;;;;;;;;;;8.50;80.30;;;;;;4984216;28;20032;-66
2022/04/22 05:45:15;;;;;;;;;;;8.60;80.20;;;;;;4984784;28;21246;-66
2022/04/22 05:47:42;;;;;;;;;;;8.60;79.60;;;;;;4986481;28;23821;-66
2022/04/22 05:50:11;;;;;;;;;;;8.60;80.10;;;;;;4976988;28;19933;-66
2022/04/22 05:52:38;;;;;;;;;;;8.60;80.20;;;;;;4985524;28;20867;-66
2022/04/22 05:55:07;;;;;;;;;;;8.60;80.20;;;;;;4986145;28;20059;-66
2022/04/22 05:57:34;;;;;;;;;;;8.60;80.40;;;;;;5001722;28;19937;-66
2022/04/22 06:00:04;;;;;;;;;;;8.70;80.10;;;;;;4982984;28;19941;-67
2022/04/22 06:02:38;;;;;;;;;;;8.70;80.10;;;;;;4985579;28;19932;-66
2022/04/22 06:05:05;;;;;;;;;;;8.70;80.00;;;;;;4988446;28;19986;-66
2022/04/22 06:07:32;;;;;;;;;;;8.70;79.90;;;;;;4991253;28;19943;-66
2022/04/22 06:12:45;;;;;;;;;;;8.70;80.40;;;;;;4990030;28;19933;-66
2022/04/22 06:15:12;;;;;;;;;;;8.80;80.70;;;;;;4987422;28;21912;-66
2022/04/22 06:17:39;;;;;;;;;;;8.80;80.50;;;;;;4987318;28;19940;-66
2022/04/22 06:20:06;;;;;;;;;;;8.90;80.40;;;;;;4984252;28;19939;-66
2022/04/22 06:22:33;;;;;;;;;;;9.00;79.90;;;;;;4991233;28;19970;-66
2022/04/22 06:25:00;;;;;;;;;;;9.00;79.80;;;;;;4991187;28;19971;-66
2022/04/22 06:27:28;;;;;;;;;;;9.10;79.50;;;;;;4989747;28;19932;-67
2022/04/22 06:29:55;;;;;;;;;;;9.10;78.80;;;;;;4989025;28;19940;-67
2022/04/22 06:32:23;;;;;;;;;;;9.10;79.40;;;;;;4987265;28;19933;-67
2022/04/22 06:34:50;;;;;;;;;;;9.10;79.20;;;;;;4988337;28;19933;-66
2022/04/22 06:37:17;;;;;;;;;;;9.20;79.20;;;;;;4989887;28;19933;-66
2022/04/22 06:48:02;;;;;;;;;;;9.40;79.20;;;;;;4986679;28;19933;-66
2022/04/22 06:50:50;;;;;;;;;;;9.40;79.20;;;;;;4988777;28;19940;-66
2022/04/22 06:53:18;;;;;;;;;;;9.40;79.70;;;;;;4986511;28;19940;-66
2022/04/22 06:55:46;;;;;;;;;;;9.50;79.00;;;;;;4990060;28;19940;-66
2022/04/22 06:58:14;;;;;;;;;;;9.50;78.60;;;;;;4988636;28;19940;-66
2022/04/22 07:00:41;;;;;;;;;;;9.50;78.40;;;;;;4995569;28;19940;-66
2022/04/22 07:03:09;;;;;;;;;;;9.50;78.40;;;;;;4986382;28;19933;-67
2022/04/22 07:05:36;;;;;;;;;;;9.50;77.70;;;;;;4989326;28;19933;-66
2022/04/22 07:08:06;;;;;;;;;;;9.50;77.70;;;;;;4985979;28;19940;-66
2022/04/22 07:10:33;;;;;;;;;;;9.60;77.90;;;;;;4986962;28;19940;-66
2022/04/22 07:13:00;;;;;;;;;;;9.60;78.10;;;;;;4985175;28;20411;-67
2022/04/22 07:15:28;;;;;;;;;;;9.60;77.90;;;;;;4988990;28;19940;-67
2022/04/22 07:17:55;;;;;;;;;;;9.50;78.20;;;;;;4989658;28;19933;-66
2022/04/22 07:20:22;;;;;;;;;;;9.50;78.20;;;;;;4987209;28;19940;-66
2022/04/22 07:22:50;;;;;;;;;;;9.60;78.80;;;;;;4998317;28;20734;-66
2022/04/22 07:25:17;;;;;;;;;;;9.50;79.10;;;;;;4988131;28;19940;-66
2022/04/22 07:27:45;;;;;;;;;;;9.60;79.10;;;;;;4987300;28;19932;-66
2022/04/22 07:30:12;;;;;;;;;;;9.60;79.60;;;;;;4987551;28;19933;-66
2022/04/22 07:32:41;;;;;;;;;;;9.70;80.60;;;;;;4986678;28;19987;-66
2022/04/22 07:35:12;;;;;;;;;;;9.70;81.80;;;;;;4988931;28;19986;-66
2022/04/22 07:37:39;;;;;;;;;;;9.70;84.70;;;;;;4987429;28;19940;-66
2022/04/22 07:40:08;;;;;;;;;;;9.70;86.00;;;;;;4989478;28;20123;-66
2022/04/22 07:48:26;;;;;;;;;;;9.50;91.10;;;;;;4988103;28;20474;-66
2022/04/22 07:50:54;;;;;;;;;;;9.50;92.30;;;;;;4988395;28;19940;-66
2022/04/22 07:53:22;;;;;;;;;;;9.50;93.50;;;;;;4988205;28;19933;-66
2022/04/22 07:55:49;;;;;;;;;;;9.50;93.50;;;;;;4988450;28;20019;-66
2022/04/22 07:58:17;;;;;;;;;;;9.50;94.40;;;;;;4989934;28;19964;-66
2022/04/22 08:00:44;;;;;;;;;;;9.50;94.50;;;;;;4983418;28;20026;-67
2022/04/22 08:03:12;;;;;;;;;;;9.50;94.40;;;;;;4985964;28;19933;-66
2022/04/22 08:05:39;;;;;;;;;;;9.50;94.90;;;;;;4998425;28;20319;-66
2022/04/22 08:08:07;;;;;;;;;;;9.50;95.80;;;;;;4984448;28;19933;-66
2022/04/22 08:10:34;;;;;;;;;;;9.40;96.90;;;;;;4982892;28;19941;-67
2022/04/22 08:13:01;;;;;;;;;;;9.40;97.70;;;;;;4984153;28;19933;-67
2022/04/22 08:15:29;;;;;;;;;;;9.30;98.00;;;;;;4969189;28;19933;-66
2022/04/22 08:17:56;;;;;;;;;;;9.30;99.50;;;;;;4981048;28;19944;-66
2022/04/22 08:20:23;;;;;;;;;;;9.30;99.90;;;;;;4986077;28;19933;-66
2022/04/22 08:22:50;;;;;;;;;;;9.30;99.90;;;;;;4987359;28;19933;-66
2022/04/22 08:25:17;;;;;;;;;;;9.20;99.90;;;;;;4986450;28;20012;-66
2022/04/22 08:27:46;;;;;;;;;;;9.20;99.90;;;;;;4990792;28;19940;-65
2022/04/22 08:30:13;;;;;;;;;;;9.20;99.90;;;;;;4970525;28;19933;-66
2022/04/22 08:32:40;;;;;;;;;;;9.10;99.90;;;;;;4986471;28;20942;-65
2022/04/22 08:35:08;;;;;;;;;;;9.20;99.90;;;;;;4984921;28;20959;-65
2022/04/22 08:37:37;;;;;;;;;;;9.20;99.90;;;;;;4982356;28;19940;-65
2022/04/22 08:40:05;;;;;;;;;;;9.30;99.90;;;;;;4984706;28;19933;-66
2022/04/22 08:42:34;;;;;;;;;;;9.40;99.90;;;;;;4989705;28;20703;-66
2022/04/22 08:45:03;;;;;;;;;;;9.40;99.90;;;;;;4986179;28;19932;-68
2022/04/22 08:50:19;;;;;;;;;;;9.30;99.90;;;;;;4985894;28;19940;-67
2022/04/22 08:52:54;;;;;;;;;;;9.40;99.90;;;;;;4999357;28;19968;-67
2022/04/22 08:55:22;;;;;;;;;;;9.40;99.90;;;;;;4984594;28;19932;-66
2022/04/22 08:57:49;;;;;;;;;;;9.60;99.90;;;;;;4986374;28;19933;-66
2022/04/22 09:00:22;;;;;;;;;;;9.60;99.90;;;;;;5001772;28;19932;-66
2022/04/22 09:02:49;;;;;;;;;;;9.60;99.90;;;;;;4985693;28;19933;-67
2022/04/22 09:05:16;;;;;;;;;;;9.60;99.90;;;;;;4981102;28;21279;-66
2022/04/22 09:07:44;;;;;;;;;;;9.70;99.90;;;;;;4983073;28;19933;-67
2022/04/22 09:10:11;;;;;;;;;;;9.60;99.90;;;;;;4986771;28;19986;-67
2022/04/22 09:12:40;;;;;;;;;;;9.50;99.90;;;;;;4983649;28;20028;-67
2022/04/22 09:15:07;;;;;;;;;;;9.50;99.90;;;;;;4982853;28;20664;-67
2022/04/22 09:17:38;;;;;;;;;;;9.60;99.90;;;;;;4988425;28;20061;-66
2022/04/22 09:20:06;;;;;;;;;;;9.60;99.90;;;;;;4997523;28;19933;-66
2022/04/22 09:22:36;;;;;;;;;;;9.80;99.90;;;;;;4975596;28;19933;-66
2022/04/22 09:25:05;;;;;;;;;;;9.90;99.90;;;;;;4979376;28;19983;-67
2022/04/22 09:27:33;;;;;;;;;;;10.10;99.90;;;;;;4982858;28;19933;-67
2022/04/22 09:30:03;;;;;;;;;;;10.10;99.90;;;;;;4981855;28;19956;-68
2022/04/22 09:32:32;;;;;;;;;;;10.10;99.90;;;;;;4987563;28;20430;-66
2022/04/22 09:35:09;;;;;;;;;;;10.10;99.90;;;;;;4983376;28;19939;-66
2022/04/22 09:43:33;;;;;;;;;;;10.20;99.90;;;;;;4982470;28;22470;-67
2022/04/22 09:46:01;;;;;;;;;;;10.20;99.90;;;;;;4987449;28;20985;-67
2022/04/22 09:48:49;;;;;;;;;;;10.20;99.90;;;;;;4986600;28;19940;-67
2022/04/22 09:51:20;;;;;;;;;;;10.20;99.90;;;;;;4990269;28;19933;-66
2022/04/22 09:53:57;;;;;;;;;;;10.10;99.90;;;;;;4990218;28;20022;-66
2022/04/22 09:56:24;;;;;;;;;;;10.10;99.90;;;;;;4990026;28;20927;-67
2022/04/22 09:58:51;;;;;;;;;;;10.10;99.90;;;;;;4989914;28;19940;-67
2022/04/22 10:01:18;;;;;;;;;;;10.10;99.90;;;;;;4982770;28;19972;-67
2022/04/22 10:04:03;;;;;;;;;;;10.10;99.90;;;;;;4984933;28;19921;-66
2022/04/22 10:06:30;;;;;;;;;;;10.10;99.90;;;;;;4985842;28;19970;-67
2022/04/22 10:08:57;;;;;;;;;;;10.10;99.90;;;;;;4989888;28;20371;-67
2022/04/22 10:11:25;;;;;;;;;;;10.10;99.90;;;;;;4987076;28;19933;-67
2022/04/22 10:13:52;;;;;;;;;;;10.10;99.90;;;;;;4982623;28;23597;-67
2022/04/22 10:16:19;;;;;;;;;;;10.20;99.90;;;;;;4974844;28;20683;-65
2022/04/22 10:18:47;;;;;;;;;;;10.20;99.90;;;;;;4986702;28;20387;-66
2022/04/22 10:21:14;;;;;;;;;;;10.30;99.90;;;;;;4993549;28;20122;-66
2022/04/22 10:23:45;;;;;;;;;;;10.30;99.90;;;;;;4988775;28;20604;-66
2022/04/22 10:26:12;;;;;;;;;;;10.40;99.90;;;;;;4987063;28;19944;-67
2022/04/22 10:28:41;;;;;;;;;;;10.40;99.90;;;;;;4978320;28;20331;-66
2022/04/22 10:31:09;;;;;;;;;;;10.50;99.90;;;;;;4987299;28;20127;-67
2022/04/22 10:33:39;;;;;;;;;;;10.40;99.90;;;;;;4989295;28;19940;-66
2022/04/22 10:36:06;;;;;;;;;;;10.40;99.90;;;;;;4986809;28;19939;-65
2022/04/22 10:38:38;;;;;;;;;;;10.50;99.90;;;;;;4991137;28;20852;-65
2022/04/22 10:41:21;;;;;;;;;;;10.50;99.90;;;;;;4981257;28;19932;-67
2022/04/22 10:47:16;;;;;;;;;;;10.70;99.90;;;;;;4987606;28;22348;-67
2022/04/22 10:49:44;;;;;;;;;;;11.00;99.90;;;;;;4987506;28;19975;-66
2022/04/22 10:52:13;;;;;;;;;;;11.30;99.90;;;;;;4986494;28;19955;-66
2022/04/22 10:54:53;;;;;;;;;;;11.40;99.90;;;;;;4982389;28;20727;-67
2022/04/22 10:57:21;;;;;;;;;;;11.60;99.90;;;;;;4983961;28;20320;-67
2022/04/22 11:00:27;;;;;;;;;;;11.60;99.90;;;;;;4984495;28;19933;-66
2022/04/22 11:03:02;;;;;;;;;;;11.70;99.90;;;;;;4979186;28;22596;-66
2022/04/22 11:05:32;;;;;;;;;;;11.70;99.90;;;;;;4983712;28;19937;-67
2022/04/22 11:08:00;;;;;;;;;;;11.60;99.90;;;;;;4983604;28;19933;-66
2022/04/22 11:10:46;;;;;;;;;;;11.50;99.90;;;;;;4966147;28;20296;-66
2022/04/22 11:13:29;;;;;;;;;;;11.50;99.90;;;;;;4984127;28;20770;-66
2022/04/22 11:16:07;;;;;;;;;;;11.50;99.90;;;;;;4981131;28;19933;-67
2022/04/22 11:18:41;;;;;;;;;;;11.70;99.90;;;;;;4980037;28;20108;-67
2022/04/22 11:21:37;;;;;;;;;;;11.70;99.90;;;;;;4986106;28;19932;-67
2022/04/22 11:24:09;;;;;;;;;;;11.70;99.70;;;;;;4992221;28;20455;-67
2022/04/22 11:26:37;;;;;;;;;;;11.90;99.10;;;;;;4983858;28;19940;-66
2022/04/22 11:29:08;;;;;;;;;;;12.00;97.50;;;;;;4983917;28;19937;-66
2022/04/22 11:31:35;;;;;;;;;;;12.20;94.70;;;;;;4982290;28;20242;-66
2022/04/22 11:34:10;;;;;;;;;;;12.40;94.90;;;;;;4980303;28;19968;-67
2022/04/22 11:36:44;;;;;;;;;;;12.30;93.20;;;;;;4985050;28;19937;-67
2022/04/22 11:39:15;;;;;;;;;;;12.30;92.60;;;;;;4984437;28;19932;-67
2022/04/22 11:41:51;;;;;;;;;;;12.30;92.80;;;;;;4977501;28;19941;-67
2022/04/22 11:44:19;;;;;;;;;;;12.30;92.30;;;;;;4987577;28;21932;-68
2022/04/22 11:46:46;;;;;;;;;;;12.30;91.90;;;;;;4974627;28;19937;-67
2022/04/22 11:49:13;;;;;;;;;;;12.30;92.40;;;;;;4975693;28;19956;-67
2022/04/22 11:51:41;;;;;;;;;;;12.50;91.90;;;;;;4982344;28;19940;-66
2022/04/22 11:54:08;;;;;;;;;;;12.50;92.50;;;;;;4979522;28;19933;-67
2022/04/22 11:56:35;;;;;;;;;;;12.50;91.50;;;;;;4976571;28;20656;-66
2022/04/22 11:59:02;;;;;;;;;;;12.50;90.80;;;;;;4985543;28;19933;-67
2022/04/22 12:08:00;;;;;;;;;;;12.80;90.00;;;;;;4977872;28;19933;-67
2022/04/22 12:09:58;;;;;;;;;;;12.90;85.80;;;;;;4983320;28;19939;-67
2022/04/22 12:12:28;;;;;;;;;;;13.10;84.10;;;;;;4981920;28;20534;-67
2022/04/22 12:15:05;;;;;;;;;;;13.50;82.90;;;;;;4983443;28;19938;-66
2022/04/22 12:17:32;;;;;;;;;;;13.80;83.80;;;;;;4980682;28;20319;-67
2022/04/22 12:20:00;;;;;;;;;;;14.20;82.10;;;;;;4983657;28;19939;-68
2022/04/22 12:22:27;;;;;;;;;;;14.30;81.40;;;;;;4981343;28;19933;-68
2022/04/22 12:25:14;;;;;;;;;;;14.10;80.30;;;;;;4982225;28;20722;-68
2022/04/22 12:27:42;;;;;;;;;;;14.00;79.00;;;;;;4982315;28;20018;-68
2022/04/22 12:30:14;;;;;;;;;;;13.80;78.70;;;;;;4984512;28;19940;-68
2022/04/22 12:32:51;;;;;;;;;;;13.70;78.50;;;;;;4981909;28;20079;-68
2022/04/22 12:35:18;;;;;;;;;;;13.70;79.10;;;;;;4980527;28;21964;-68
2022/04/22 12:37:53;;;;;;;;;;;13.70;79.30;;;;;;4999860;28;19940;-68
2022/04/22 12:40:26;;;;;;;;;;;13.70;77.00;;;;;;4975966;28;22055;-67
2022/04/22 12:42:53;;;;;;;;;;;13.80;78.70;;;;;;4980672;28;20706;-67
2022/04/22 12:53:49;;;;;;;;;;;13.70;79.10;;;;;;4980479;28;20100;-69
2022/04/22 12:56:16;;;;;;;;;;;13.80;79.10;;;;;;4978872;28;19933;-68
2022/04/22 12:58:51;;;;;;;;;;;13.80;78.30;;;;;;4981389;28;20539;-68
2022/04/22 13:01:19;;;;;;;;;;;13.80;77.30;;;;;;4997081;28;20461;-68
2022/04/22 13:03:46;;;;;;;;;;;13.60;76.50;;;;;;4981080;28;19933;-68
2022/04/22 13:06:33;;;;;;;;;;;13.50;76.50;;;;;;4982190;28;20025;-68
2022/04/22 13:09:00;;;;;;;;;;;13.50;77.50;;;;;;4985357;28;20627;-68
2022/04/22 13:11:27;;;;;;;;;;;13.30;77.40;;;;;;4972451;28;19933;-67
2022/04/22 13:13:53;;;;;;;;;;;13.20;77.10;;;;;;4985823;28;20511;-67
2022/04/22 13:16:20;;;;;;;;;;;13.10;76.80;;;;;;4985795;28;19933;-67
2022/04/22 13:18:47;;;;;;;;;;;13.00;77.20;;;;;;5001814;28;20912;-68
2022/04/22 13:21:14;;;;;;;;;;;12.90;77.30;;;;;;4986090;28;19984;-68
2022/04/22 13:23:41;;;;;;;;;;;13.00;77.60;;;;;;4985300;28;20400;-68
2022/04/22 13:26:08;;;;;;;;;;;12.90;76.50;;;;;;4982696;28;22197;-67
2022/04/22 13:28:36;;;;;;;;;;;13.00;77.80;;;;;;4984589;28;22099;-68
2022/04/22 13:31:03;;;;;;;;;;;13.00;78.70;;;;;;4980910;28;20442;-67
2022/04/22 13:33:32;;;;;;;;;;;12.90;76.60;;;;;;4983738;28;20126;-67
2022/04/22 13:36:02;;;;;;;;;;;12.90;77.20;;;;;;4983846;28;20407;-68
2022/04/22 13:38:30;;;;;;;;;;;12.90;76.40;;;;;;4971982;28;20404;-67
2022/04/22 13:40:57;;;;;;;;;;;12.90;76.60;;;;;;5001020;28;20002;-68
2022/04/22 13:43:30;;;;;;;;;;;12.90;77.30;;;;;;4989237;28;19933;-67
2022/04/22 13:54:14;;;;;;;;;;;13.00;75.00;;;;;;4985898;28;19932;-67
2022/04/22 13:56:41;;;;;;;;;;;12.90;75.50;;;;;;4983581;28;20726;-67
2022/04/22 13:59:08;;;;;;;;;;;12.90;76.50;;;;;;4982280;28;20095;-67
2022/04/22 14:01:37;;;;;;;;;;;12.90;74.80;;;;;;4985608;28;20496;-66
2022/04/22 14:04:04;;;;;;;;;;;12.90;74.20;;;;;;4983115;28;20100;-67
2022/04/22 14:06:31;;;;;;;;;;;13.00;73.00;;;;;;4986599;28;19932;-67
2022/04/22 14:08:59;;;;;;;;;;;13.00;73.40;;;;;;4985424;28;25160;-68
2022/04/22 14:11:28;;;;;;;;;;;13.00;73.50;;;;;;4986717;28;20514;-68
2022/04/22 14:13:55;;;;;;;;;;;13.00;73.80;;;;;;4985950;28;19933;-67
2022/04/22 14:16:24;;;;;;;;;;;13.00;73.00;;;;;;4984143;28;19933;-68
2022/04/22 14:18:51;;;;;;;;;;;12.90;73.70;;;;;;4984442;28;19932;-67
2022/04/22 14:21:18;;;;;;;;;;;12.90;74.00;;;;;;4982988;28;19940;-68
2022/04/22 14:23:50;;;;;;;;;;;12.90;74.40;;;;;;4982238;28;19933;-68
2022/04/22 14:26:17;;;;;;;;;;;12.90;73.90;;;;;;4986348;28;20516;-68
2022/04/22 14:28:44;;;;;;;;;;;13.00;74.50;;;;;;4968695;28;20403;-68
2022/04/22 14:31:11;;;;;;;;;;;13.00;74.80;;;;;;4985549;28;19932;-68
2022/04/22 14:33:39;;;;;;;;;;;13.10;74.50;;;;;;4986410;28;22409;-68
2022/04/22 14:36:06;;;;;;;;;;;13.10;75.60;;;;;;4984004;28;20081;-68
2022/04/22 14:38:33;;;;;;;;;;;13.00;74.90;;;;;;4985483;28;20371;-68
2022/04/22 14:41:00;;;;;;;;;;;12.90;74.70;;;;;;4986260;28;20470;-66
2022/04/22 14:43:27;;;;;;;;;;;12.90;75.50;;;;;;4997565;28;19939;-67
2022/04/22 14:45:54;;;;;;;;;;;12.90;75.40;;;;;;4982822;28;19940;-66
2022/04/22 14:48:21;;;;;;;;;;;12.80;75.10;;;;;;4976786;28;19933;-66
2022/04/22 14:50:48;;;;;;;;;;;12.90;75.00;;;;;;4977545;28;19932;-67
2022/04/22 14:53:15;;;;;;;;;;;13.10;75.00;;;;;;4998352;28;19976;-66
2022/04/22 14:55:42;;;;;;;;;;;13.10;74.70;;;;;;4984499;28;19933;-67
2022/04/22 14:58:09;;;;;;;;;;;13.10;75.20;;;;;;4982104;28;19933;-67
2022/04/22 15:00:36;;;;;;;;;;;13.10;73.70;;;;;;4973672;28;20410;-66
2022/04/22 15:03:03;;;;;;;;;;;13.10;74.00;;;;;;4985836;28;19933;-67
2022/04/22 15:05:30;;;;;;;;;;;13.10;73.30;;;;;;4985177;28;20439;-67
2022/04/22 15:07:58;;;;;;;;;;;13.10;74.00;;;;;;4979158;28;20165;-67
2022/04/22 15:10:26;;;;;;;;;;;13.00;73.20;;;;;;4986249;28;19940;-67
2022/04/22 15:12:54;;;;;;;;;;;13.00;73.30;;;;;;4987440;28;19939;-67
2022/04/22 15:15:21;;;;;;;;;;;13.00;74.70;;;;;;4982783;28;19933;-67
2022/04/22 15:26:05;;;;;;;;;;;12.80;72.40;;;;;;4981434;28;20645;-66
2022/04/22 15:28:33;;;;;;;;;;;12.80;72.50;;;;;;4977472;28;20695;-66
2022/04/22 15:31:00;;;;;;;;;;;12.80;73.70;;;;;;4984654;28;19933;-66
2022/04/22 15:33:27;;;;;;;;;;;12.70;73.40;;;;;;4985550;28;19977;-66
2022/04/22 15:35:54;;;;;;;;;;;12.70;73.40;;;;;;4984079;28;19933;-67
2022/04/22 15:38:22;;;;;;;;;;;12.70;73.60;;;;;;4987381;28;20423;-66
2022/04/22 15:40:49;;;;;;;;;;;12.60;73.70;;;;;;4983248;28;19933;-67
2022/04/22 15:43:16;;;;;;;;;;;12.60;74.70;;;;;;4995568;28;20404;-66
2022/04/22 15:45:43;;;;;;;;;;;12.60;74.10;;;;;;4986493;28;20030;-67
2022/04/22 15:48:10;;;;;;;;;;;12.60;73.40;;;;;;4984538;28;19940;-66
2022/04/22 15:50:37;;;;;;;;;;;12.60;73.10;;;;;;4974379;28;19971;-67
2022/04/22 15:53:04;;;;;;;;;;;12.60;73.10;;;;;;4984200;28;19933;-67
2022/04/22 15:55:31;;;;;;;;;;;12.60;73.70;;;;;;5000248;28;22317;-67
2022/04/22 15:58:00;;;;;;;;;;;12.60;74.30;;;;;;4981365;28;21941;-67
2022/04/22 16:00:27;;;;;;;;;;;12.50;74.10;;;;;;4984798;28;19991;-68
2022/04/22 16:02:54;;;;;;;;;;;12.50;74.70;;;;;;4983841;28;19933;-67
2022/04/22 16:05:21;;;;;;;;;;;12.50;74.50;;;;;;4983107;28;19933;-67